sensor_id;sensor_type;location;lat;lon;timestamp;temperature;humidity
25949;DHT22;13961;51.178;4.448;2022-07-10T00:00:26;16.40;99.90
25949;DHT22;13961;51.178;4.448;2022-07-10T00:02:52;16.50;99.90
25949;DHT22;13961;51.178;4.448;2022-07-10T00:05:18;16.60;99.90
25949;DHT22;13961;51.178;4.448;2022-07-10T00:07:45;16.70;99.90
25949;DHT22;13961;51.178;4.448;2022-07-10T00:10:10;16.60;99.90
25949;DHT22;13961;51.178;4.448;2022-07-10T00:12:38;16.60;99.90
25949;DHT22;13961;51.178;4.448;2022-07-10T00:15:04;16.50;99.90
25949;DHT22;13961;51.178;4.448;2022-07-10T00:17:31;16.50;99.90
25949;DHT22;13961;51.178;4.448;2022-07-10T00:19:57;16.70;99.90
25949;DHT22;13961;51.178;4.448;2022-07-10T00:22:23;16.60;99.90
25949;DHT22;13961;51.178;4.448;2022-07-10T00:24:48;16.60;99.90
25949;DHT22;13961;51.178;4.448;2022-07-10T00:27:19;16.40;99.90
25949;DHT22;13961;51.178;4.448;2022-07-10T00:29:45;16.40;99.90
25949;DHT22;13961;51.178;4.448;2022-07-10T00:32:11;16.30;99.90
25949;DHT22;13961;51.178;4.448;2022-07-10T00:34:37;16.30;99.90
25949;DHT22;13961;51.178;4.448;2022-07-10T00:37:03;16.40;99.90
25949;DHT22;13961;51.178;4.448;2022-07-10T00:39:30;16.40;99.90
25949;DHT22;13961;51.178;4.448;2022-07-10T00:42:08;16.40;99.90
25949;DHT22;13961;51.178;4.448;2022-07-10T00:44:34;16.40;99.90
25949;DHT22;13961;51.178;4.448;2022-07-10T00:47:01;16.30;99.90
25949;DHT22;13961;51.178;4.448;2022-07-10T00:49:27;16.20;99.90
25949;DHT22;13961;51.178;4.448;2022-07-10T00:51:53;16.20;99.90
25949;DHT22;13961;51.178;4.448;2022-07-10T00:54:19;16.20;99.90
25949;DHT22;13961;51.178;4.448;2022-07-10T00:56:45;16.20;99.90
25949;DHT22;13961;51.178;4.448;2022-07-10T00:59:10;16.20;99.90
25949;DHT22;13961;51.178;4.448;2022-07-10T01:01:36;16.20;99.90
25949;DHT22;13961;51.178;4.448;2022-07-10T01:04:02;16.20;99.90
25949;DHT22;13961;51.178;4.448;2022-07-10T01:06:28;16.20;99.90
25949;DHT22;13961;51.178;4.448;2022-07-10T01:08:53;16.20;99.90
25949;DHT22;13961;51.178;4.448;2022-07-10T01:11:20;16.20;99.90
25949;DHT22;13961;51.178;4.448;2022-07-10T01:13:46;16.10;99.90
25949;DHT22;13961;51.178;4.448;2022-07-10T01:16:12;16.20;99.90
25949;DHT22;13961;51.178;4.448;2022-07-10T01:18:38;16.10;99.90
25949;DHT22;13961;51.178;4.448;2022-07-10T01:21:04;16.10;99.90
25949;DHT22;13961;51.178;4.448;2022-07-10T01:23:29;16.10;99.90
25949;DHT22;13961;51.178;4.448;2022-07-10T01:25:55;16.10;99.90
25949;DHT22;13961;51.178;4.448;2022-07-10T01:28:21;16.00;99.90
25949;DHT22;13961;51.178;4.448;2022-07-10T01:30:47;15.80;99.90
25949;DHT22;13961;51.178;4.448;2022-07-10T01:33:14;15.70;99.90
25949;DHT22;13961;51.178;4.448;2022-07-10T01:35:40;15.70;99.90
25949;DHT22;13961;51.178;4.448;2022-07-10T01:38:06;15.80;99.90
25949;DHT22;13961;51.178;4.448;2022-07-10T01:40:32;15.90;99.90
25949;DHT22;13961;51.178;4.448;2022-07-10T01:42:58;15.70;99.90
25949;DHT22;13961;51.178;4.448;2022-07-10T01:45:24;15.90;99.90
25949;DHT22;13961;51.178;4.448;2022-07-10T01:47:49;15.80;99.90
25949;DHT22;13961;51.178;4.448;2022-07-10T01:50:15;15.80;99.90
25949;DHT22;13961;51.178;4.448;2022-07-10T01:52:41;15.70;99.90
25949;DHT22;13961;51.178;4.448;2022-07-10T01:55:07;15.90;99.90
25949;DHT22;13961;51.178;4.448;2022-07-10T01:57:32;15.80;99.90
25949;DHT22;13961;51.178;4.448;2022-07-10T01:59:58;15.90;99.90
25949;DHT22;13961;51.178;4.448;2022-07-10T02:02:24;15.90;99.90
25949;DHT22;13961;51.178;4.448;2022-07-10T02:04:50;15.90;99.90
25949;DHT22;13961;51.178;4.448;2022-07-10T02:07:18;15.80;99.90
25949;DHT22;13961;51.178;4.448;2022-07-10T02:09:47;15.80;99.90
25949;DHT22;13961;51.178;4.448;2022-07-10T02:12:14;15.70;99.90
25949;DHT22;13961;51.178;4.448;2022-07-10T02:14:41;15.60;99.90
25949;DHT22;13961;51.178;4.448;2022-07-10T02:17:07;15.70;99.90
25949;DHT22;13961;51.178;4.448;2022-07-10T02:19:34;15.80;99.90
25949;DHT22;13961;51.178;4.448;2022-07-10T02:22:00;15.70;99.90
25949;DHT22;13961;51.178;4.448;2022-07-10T02:24:26;15.60;99.90
25949;DHT22;13961;51.178;4.448;2022-07-10T02:26:52;15.50;99.90
25949;DHT22;13961;51.178;4.448;2022-07-10T02:29:18;15.50;99.90
25949;DHT22;13961;51.178;4.448;2022-07-10T02:31:44;15.50;99.90
25949;DHT22;13961;51.178;4.448;2022-07-10T02:34:10;15.40;99.90
25949;DHT22;13961;51.178;4.448;2022-07-10T02:36:37;15.40;99.90
25949;DHT22;13961;51.178;4.448;2022-07-10T02:39:05;15.50;99.90
25949;DHT22;13961;51.178;4.448;2022-07-10T02:41:31;15.40;99.90
25949;DHT22;13961;51.178;4.448;2022-07-10T02:43:56;15.50;99.90
25949;DHT22;13961;51.178;4.448;2022-07-10T02:46:22;15.60;99.90
25949;DHT22;13961;51.178;4.448;2022-07-10T02:48:48;15.60;99.90
25949;DHT22;13961;51.178;4.448;2022-07-10T02:51:13;15.60;99.90
25949;DHT22;13961;51.178;4.448;2022-07-10T02:53:39;15.70;99.90
25949;DHT22;13961;51.178;4.448;2022-07-10T02:56:05;15.70;99.90
25949;DHT22;13961;51.178;4.448;2022-07-10T02:58:32;15.70;99.90
25949;DHT22;13961;51.178;4.448;2022-07-10T03:00:58;15.80;99.90
25949;DHT22;13961;51.178;4.448;2022-07-10T03:03:24;15.80;99.90
25949;DHT22;13961;51.178;4.448;2022-07-10T03:05:49;15.70;99.90
25949;DHT22;13961;51.178;4.448;2022-07-10T03:08:15;15.70;99.90
25949;DHT22;13961;51.178;4.448;2022-07-10T03:10:41;15.50;99.90
25949;DHT22;13961;51.178;4.448;2022-07-10T03:13:07;15.50;99.90
25949;DHT22;13961;51.178;4.448;2022-07-10T03:15:32;15.60;99.90
25949;DHT22;13961;51.178;4.448;2022-07-10T03:17:58;15.50;99.90
25949;DHT22;13961;51.178;4.448;2022-07-10T03:20:24;15.40;99.90
25949;DHT22;13961;51.178;4.448;2022-07-10T03:22:51;15.30;99.90
25949;DHT22;13961;51.178;4.448;2022-07-10T03:25:16;15.30;99.90
25949;DHT22;13961;51.178;4.448;2022-07-10T03:27:42;15.30;99.90
25949;DHT22;13961;51.178;4.448;2022-07-10T03:30:09;15.30;99.90
25949;DHT22;13961;51.178;4.448;2022-07-10T03:32:35;15.20;99.90
25949;DHT22;13961;51.178;4.448;2022-07-10T03:35:01;15.20;99.90
25949;DHT22;13961;51.178;4.448;2022-07-10T03:37:26;15.30;99.90
25949;DHT22;13961;51.178;4.448;2022-07-10T03:39:52;15.20;99.90
25949;DHT22;13961;51.178;4.448;2022-07-10T03:42:18;15.10;99.90
25949;DHT22;13961;51.178;4.448;2022-07-10T03:44:44;15.10;99.90
25949;DHT22;13961;51.178;4.448;2022-07-10T03:47:10;15.20;99.90
25949;DHT22;13961;51.178;4.448;2022-07-10T03:49:36;15.20;99.90
25949;DHT22;13961;51.178;4.448;2022-07-10T03:52:04;15.10;99.90
25949;DHT22;13961;51.178;4.448;2022-07-10T03:54:30;15.10;99.90
25949;DHT22;13961;51.178;4.448;2022-07-10T03:56:56;15.00;99.90
25949;DHT22;13961;51.178;4.448;2022-07-10T03:59:41;15.00;99.90
25949;DHT22;13961;51.178;4.448;2022-07-10T04:02:07;14.90;99.90
25949;DHT22;13961;51.178;4.448;2022-07-10T04:04:33;15.00;99.90
25949;DHT22;13961;51.178;4.448;2022-07-10T04:06:58;15.10;99.90
25949;DHT22;13961;51.178;4.448;2022-07-10T04:09:24;15.00;99.90
25949;DHT22;13961;51.178;4.448;2022-07-10T04:11:50;15.10;99.90
25949;DHT22;13961;51.178;4.448;2022-07-10T04:14:15;15.10;99.90
25949;DHT22;13961;51.178;4.448;2022-07-10T04:16:41;15.10;99.90
25949;DHT22;13961;51.178;4.448;2022-07-10T04:19:07;14.90;99.90
25949;DHT22;13961;51.178;4.448;2022-07-10T04:21:32;15.10;99.90
25949;DHT22;13961;51.178;4.448;2022-07-10T04:23:58;15.20;99.90
25949;DHT22;13961;51.178;4.448;2022-07-10T04:26:24;15.20;99.90
25949;DHT22;13961;51.178;4.448;2022-07-10T04:28:50;15.20;99.90
25949;DHT22;13961;51.178;4.448;2022-07-10T04:31:15;15.30;99.90
25949;DHT22;13961;51.178;4.448;2022-07-10T04:33:41;15.20;99.90
25949;DHT22;13961;51.178;4.448;2022-07-10T04:36:07;15.20;99.90
25949;DHT22;13961;51.178;4.448;2022-07-10T04:38:32;15.40;99.90
25949;DHT22;13961;51.178;4.448;2022-07-10T04:40:58;15.40;99.90
25949;DHT22;13961;51.178;4.448;2022-07-10T04:43:24;15.60;99.90
25949;DHT22;13961;51.178;4.448;2022-07-10T04:45:49;15.60;99.90
25949;DHT22;13961;51.178;4.448;2022-07-10T04:48:15;15.70;99.90
25949;DHT22;13961;51.178;4.448;2022-07-10T04:50:40;15.80;99.90
25949;DHT22;13961;51.178;4.448;2022-07-10T04:53:06;15.80;99.90
25949;DHT22;13961;51.178;4.448;2022-07-10T04:55:32;15.80;99.90
25949;DHT22;13961;51.178;4.448;2022-07-10T04:57:58;15.80;99.90
25949;DHT22;13961;51.178;4.448;2022-07-10T05:00:24;15.90;99.90
25949;DHT22;13961;51.178;4.448;2022-07-10T05:02:49;16.00;99.90
25949;DHT22;13961;51.178;4.448;2022-07-10T05:05:16;16.10;99.90
25949;DHT22;13961;51.178;4.448;2022-07-10T05:07:41;16.10;99.90
25949;DHT22;13961;51.178;4.448;2022-07-10T05:10:07;16.20;99.90
25949;DHT22;13961;51.178;4.448;2022-07-10T05:12:33;15.90;99.90
25949;DHT22;13961;51.178;4.448;2022-07-10T05:14:59;16.00;99.90
25949;DHT22;13961;51.178;4.448;2022-07-10T05:17:26;16.20;99.90
25949;DHT22;13961;51.178;4.448;2022-07-10T05:19:54;16.40;99.90
25949;DHT22;13961;51.178;4.448;2022-07-10T05:22:21;16.50;99.90
25949;DHT22;13961;51.178;4.448;2022-07-10T05:24:47;16.60;99.90
25949;DHT22;13961;51.178;4.448;2022-07-10T05:27:13;16.90;99.90
25949;DHT22;13961;51.178;4.448;2022-07-10T05:29:39;17.20;99.90
25949;DHT22;13961;51.178;4.448;2022-07-10T05:32:04;17.40;99.90
25949;DHT22;13961;51.178;4.448;2022-07-10T05:34:30;17.60;99.90
25949;DHT22;13961;51.178;4.448;2022-07-10T05:36:56;17.70;99.90
25949;DHT22;13961;51.178;4.448;2022-07-10T05:39:21;17.60;99.90
25949;DHT22;13961;51.178;4.448;2022-07-10T05:41:51;17.60;99.90
25949;DHT22;13961;51.178;4.448;2022-07-10T05:44:16;17.80;99.90
25949;DHT22;13961;51.178;4.448;2022-07-10T05:46:45;18.10;99.90
25949;DHT22;13961;51.178;4.448;2022-07-10T05:49:10;18.20;99.90
25949;DHT22;13961;51.178;4.448;2022-07-10T05:51:36;18.30;99.90
25949;DHT22;13961;51.178;4.448;2022-07-10T05:54:02;18.40;99.90
25949;DHT22;13961;51.178;4.448;2022-07-10T05:56:29;18.50;99.90
25949;DHT22;13961;51.178;4.448;2022-07-10T05:58:54;18.40;99.90
25949;DHT22;13961;51.178;4.448;2022-07-10T06:01:23;18.40;99.90
25949;DHT22;13961;51.178;4.448;2022-07-10T06:03:49;18.40;99.90
25949;DHT22;13961;51.178;4.448;2022-07-10T06:06:14;18.50;99.90
25949;DHT22;13961;51.178;4.448;2022-07-10T06:08:42;18.40;99.90
25949;DHT22;13961;51.178;4.448;2022-07-10T06:11:07;18.40;99.90
25949;DHT22;13961;51.178;4.448;2022-07-10T06:13:33;18.60;99.90
25949;DHT22;13961;51.178;4.448;2022-07-10T06:15:59;18.70;99.90
25949;DHT22;13961;51.178;4.448;2022-07-10T06:18:25;18.70;99.90
25949;DHT22;13961;51.178;4.448;2022-07-10T06:20:50;18.70;99.90
25949;DHT22;13961;51.178;4.448;2022-07-10T06:23:16;18.70;99.90
25949;DHT22;13961;51.178;4.448;2022-07-10T06:25:41;18.70;99.90
25949;DHT22;13961;51.178;4.448;2022-07-10T06:28:07;18.60;99.90
25949;DHT22;13961;51.178;4.448;2022-07-10T06:30:33;18.70;99.90
25949;DHT22;13961;51.178;4.448;2022-07-10T06:32:58;18.70;99.90
25949;DHT22;13961;51.178;4.448;2022-07-10T06:35:24;18.70;99.90
25949;DHT22;13961;51.178;4.448;2022-07-10T06:37:49;19.00;99.90
25949;DHT22;13961;51.178;4.448;2022-07-10T06:40:17;19.10;99.90
25949;DHT22;13961;51.178;4.448;2022-07-10T06:42:45;19.20;99.90
25949;DHT22;13961;51.178;4.448;2022-07-10T06:45:11;19.30;99.90
25949;DHT22;13961;51.178;4.448;2022-07-10T06:47:37;19.40;99.90
25949;DHT22;13961;51.178;4.448;2022-07-10T06:50:22;19.50;99.90
25949;DHT22;13961;51.178;4.448;2022-07-10T06:52:49;19.60;99.90
25949;DHT22;13961;51.178;4.448;2022-07-10T06:55:15;19.90;99.90
25949;DHT22;13961;51.178;4.448;2022-07-10T06:57:41;19.90;99.90
25949;DHT22;13961;51.178;4.448;2022-07-10T07:00:07;20.00;99.90
25949;DHT22;13961;51.178;4.448;2022-07-10T07:02:35;20.20;99.90
25949;DHT22;13961;51.178;4.448;2022-07-10T07:05:00;20.30;99.90
25949;DHT22;13961;51.178;4.448;2022-07-10T07:07:26;20.40;99.90
25949;DHT22;13961;51.178;4.448;2022-07-10T07:09:52;20.20;99.90
25949;DHT22;13961;51.178;4.448;2022-07-10T07:12:17;20.10;99.90
25949;DHT22;13961;51.178;4.448;2022-07-10T07:14:43;20.10;99.90
25949;DHT22;13961;51.178;4.448;2022-07-10T07:17:09;20.30;99.90
25949;DHT22;13961;51.178;4.448;2022-07-10T07:19:37;20.40;99.90
25949;DHT22;13961;51.178;4.448;2022-07-10T07:22:23;20.50;99.90
25949;DHT22;13961;51.178;4.448;2022-07-10T07:25:08;20.30;99.90
25949;DHT22;13961;51.178;4.448;2022-07-10T07:27:35;20.40;99.90
25949;DHT22;13961;51.178;4.448;2022-07-10T07:30:12;20.60;99.90
25949;DHT22;13961;51.178;4.448;2022-07-10T07:32:41;21.00;99.90
25949;DHT22;13961;51.178;4.448;2022-07-10T07:35:08;21.30;99.90
25949;DHT22;13961;51.178;4.448;2022-07-10T07:37:46;21.20;99.90
25949;DHT22;13961;51.178;4.448;2022-07-10T07:40:14;21.20;99.90
25949;DHT22;13961;51.178;4.448;2022-07-10T07:42:40;21.60;99.90
25949;DHT22;13961;51.178;4.448;2022-07-10T07:45:07;21.80;99.90
25949;DHT22;13961;51.178;4.448;2022-07-10T07:47:50;21.80;99.90
25949;DHT22;13961;51.178;4.448;2022-07-10T07:50:18;21.80;99.90
25949;DHT22;13961;51.178;4.448;2022-07-10T07:52:45;21.90;99.90
25949;DHT22;13961;51.178;4.448;2022-07-10T07:55:12;22.00;99.90
25949;DHT22;13961;51.178;4.448;2022-07-10T07:57:40;21.90;99.90
25949;DHT22;13961;51.178;4.448;2022-07-10T08:00:06;21.90;99.90
25949;DHT22;13961;51.178;4.448;2022-07-10T08:02:33;22.20;99.90
25949;DHT22;13961;51.178;4.448;2022-07-10T08:04:59;22.40;99.90
25949;DHT22;13961;51.178;4.448;2022-07-10T08:07:39;22.80;99.90
25949;DHT22;13961;51.178;4.448;2022-07-10T08:10:07;23.40;99.90
25949;DHT22;13961;51.178;4.448;2022-07-10T08:12:33;23.80;99.90
25949;DHT22;13961;51.178;4.448;2022-07-10T08:14:59;23.80;99.90
25949;DHT22;13961;51.178;4.448;2022-07-10T08:17:26;23.70;99.90
25949;DHT22;13961;51.178;4.448;2022-07-10T08:19:52;24.10;99.90
25949;DHT22;13961;51.178;4.448;2022-07-10T08:22:18;24.60;99.90
25949;DHT22;13961;51.178;4.448;2022-07-10T08:24:43;24.30;99.90
25949;DHT22;13961;51.178;4.448;2022-07-10T08:27:09;24.20;99.90
25949;DHT22;13961;51.178;4.448;2022-07-10T08:29:35;24.70;99.90
25949;DHT22;13961;51.178;4.448;2022-07-10T08:32:00;25.00;99.90
25949;DHT22;13961;51.178;4.448;2022-07-10T08:34:26;25.90;99.50
25949;DHT22;13961;51.178;4.448;2022-07-10T08:36:53;26.30;98.80
25949;DHT22;13961;51.178;4.448;2022-07-10T08:39:18;26.20;99.00
25949;DHT22;13961;51.178;4.448;2022-07-10T08:41:47;26.00;98.70
25949;DHT22;13961;51.178;4.448;2022-07-10T08:44:16;25.80;99.10
25949;DHT22;13961;51.178;4.448;2022-07-10T08:46:43;25.60;99.50
25949;DHT22;13961;51.178;4.448;2022-07-10T08:49:10;25.60;99.70
25949;DHT22;13961;51.178;4.448;2022-07-10T08:54:27;26.00;99.20
25949;DHT22;13961;51.178;4.448;2022-07-10T08:56:55;26.10;98.70
25949;DHT22;13961;51.178;4.448;2022-07-10T08:59:22;26.50;99.10
25949;DHT22;13961;51.178;4.448;2022-07-10T09:01:48;26.40;98.20
25949;DHT22;13961;51.178;4.448;2022-07-10T09:04:18;26.90;97.40
25949;DHT22;13961;51.178;4.448;2022-07-10T09:06:45;27.00;97.50
25949;DHT22;13961;51.178;4.448;2022-07-10T09:09:11;27.40;97.20
25949;DHT22;13961;51.178;4.448;2022-07-10T09:11:38;27.20;96.80
25949;DHT22;13961;51.178;4.448;2022-07-10T09:14:06;26.80;96.90
25949;DHT22;13961;51.178;4.448;2022-07-10T09:16:38;25.80;98.00
25949;DHT22;13961;51.178;4.448;2022-07-10T09:21:43;26.30;97.80
25949;DHT22;13961;51.178;4.448;2022-07-10T09:24:09;26.70;97.20
25949;DHT22;13961;51.178;4.448;2022-07-10T09:26:39;26.80;96.80
25949;DHT22;13961;51.178;4.448;2022-07-10T09:29:12;27.40;97.70
25949;DHT22;13961;51.178;4.448;2022-07-10T09:31:54;28.00;95.60
25949;DHT22;13961;51.178;4.448;2022-07-10T09:34:43;27.30;95.70
25949;DHT22;13961;51.178;4.448;2022-07-10T09:42:30;26.00;97.50
25949;DHT22;13961;51.178;4.448;2022-07-10T09:47:54;24.20;99.90
25949;DHT22;13961;51.178;4.448;2022-07-10T09:52:57;24.00;99.90
25949;DHT22;13961;51.178;4.448;2022-07-10T09:55:25;23.90;99.90
25949;DHT22;13961;51.178;4.448;2022-07-10T09:58:02;23.70;99.90
25949;DHT22;13961;51.178;4.448;2022-07-10T10:00:47;23.70;99.90
25949;DHT22;13961;51.178;4.448;2022-07-10T10:03:14;23.70;99.90
25949;DHT22;13961;51.178;4.448;2022-07-10T10:06:06;24.00;99.90
25949;DHT22;13961;51.178;4.448;2022-07-10T10:11:19;23.80;99.90
25949;DHT22;13961;51.178;4.448;2022-07-10T10:13:49;24.20;99.90
25949;DHT22;13961;51.178;4.448;2022-07-10T10:16:15;23.80;99.90
25949;DHT22;13961;51.178;4.448;2022-07-10T10:18:45;23.90;99.90
25949;DHT22;13961;51.178;4.448;2022-07-10T10:21:30;23.70;99.90
25949;DHT22;13961;51.178;4.448;2022-07-10T10:23:56;23.90;99.90
25949;DHT22;13961;51.178;4.448;2022-07-10T10:26:22;24.00;99.90
25949;DHT22;13961;51.178;4.448;2022-07-10T10:28:51;24.20;99.90
25949;DHT22;13961;51.178;4.448;2022-07-10T10:31:18;24.30;99.90
25949;DHT22;13961;51.178;4.448;2022-07-10T10:33:46;24.50;99.90
25949;DHT22;13961;51.178;4.448;2022-07-10T10:39:11;24.30;99.90
25949;DHT22;13961;51.178;4.448;2022-07-10T10:42:01;24.30;99.90
25949;DHT22;13961;51.178;4.448;2022-07-10T10:44:28;24.70;99.90
25949;DHT22;13961;51.178;4.448;2022-07-10T10:47:01;24.60;99.90
25949;DHT22;13961;51.178;4.448;2022-07-10T10:49:51;24.30;99.90
25949;DHT22;13961;51.178;4.448;2022-07-10T10:52:17;24.70;99.90
25949;DHT22;13961;51.178;4.448;2022-07-10T10:57:23;24.30;99.90
25949;DHT22;13961;51.178;4.448;2022-07-10T10:59:55;24.20;99.90
25949;DHT22;13961;51.178;4.448;2022-07-10T11:02:25;24.40;99.90
25949;DHT22;13961;51.178;4.448;2022-07-10T11:04:51;24.70;99.90
25949;DHT22;13961;51.178;4.448;2022-07-10T11:13:04;25.10;99.90
25949;DHT22;13961;51.178;4.448;2022-07-10T11:15:32;25.00;99.90
25949;DHT22;13961;51.178;4.448;2022-07-10T11:18:11;24.70;99.90
25949;DHT22;13961;51.178;4.448;2022-07-10T11:20:45;24.70;99.90
25949;DHT22;13961;51.178;4.448;2022-07-10T11:25:54;24.50;99.90
25949;DHT22;13961;51.178;4.448;2022-07-10T11:31:09;25.10;99.90
25949;DHT22;13961;51.178;4.448;2022-07-10T11:33:42;25.10;99.90
25949;DHT22;13961;51.178;4.448;2022-07-10T11:36:17;25.10;99.90
25949;DHT22;13961;51.178;4.448;2022-07-10T11:38:44;25.00;99.90
25949;DHT22;13961;51.178;4.448;2022-07-10T11:41:18;25.00;99.90
25949;DHT22;13961;51.178;4.448;2022-07-10T11:43:52;25.10;99.90
25949;DHT22;13961;51.178;4.448;2022-07-10T11:46:23;25.00;99.90
25949;DHT22;13961;51.178;4.448;2022-07-10T11:48:50;24.80;99.90
25949;DHT22;13961;51.178;4.448;2022-07-10T11:51:22;24.90;99.90
25949;DHT22;13961;51.178;4.448;2022-07-10T11:54:01;25.30;99.90
25949;DHT22;13961;51.178;4.448;2022-07-10T11:56:32;25.70;99.90
25949;DHT22;13961;51.178;4.448;2022-07-10T11:58:59;25.80;99.40
25949;DHT22;13961;51.178;4.448;2022-07-10T12:01:28;25.60;99.60
25949;DHT22;13961;51.178;4.448;2022-07-10T12:04:04;25.40;99.90
25949;DHT22;13961;51.178;4.448;2022-07-10T12:06:31;25.30;99.90
25949;DHT22;13961;51.178;4.448;2022-07-10T12:09:08;25.30;99.90
25949;DHT22;13961;51.178;4.448;2022-07-10T12:11:34;25.40;99.90
25949;DHT22;13961;51.178;4.448;2022-07-10T12:16:36;25.40;99.90
25949;DHT22;13961;51.178;4.448;2022-07-10T12:19:03;25.40;99.90
25949;DHT22;13961;51.178;4.448;2022-07-10T12:21:28;25.40;99.90
25949;DHT22;13961;51.178;4.448;2022-07-10T12:23:55;25.30;99.80
25949;DHT22;13961;51.178;4.448;2022-07-10T12:26:22;24.80;99.90
25949;DHT22;13961;51.178;4.448;2022-07-10T12:28:52;24.70;99.90
25949;DHT22;13961;51.178;4.448;2022-07-10T12:31:26;24.70;99.90
25949;DHT22;13961;51.178;4.448;2022-07-10T12:33:54;25.00;99.90
25949;DHT22;13961;51.178;4.448;2022-07-10T12:36:25;25.10;99.90
25949;DHT22;13961;51.178;4.448;2022-07-10T12:38:56;25.00;99.90
25949;DHT22;13961;51.178;4.448;2022-07-10T12:41:24;24.50;99.90
25949;DHT22;13961;51.178;4.448;2022-07-10T12:43:51;24.50;99.90
25949;DHT22;13961;51.178;4.448;2022-07-10T12:46:22;24.90;99.90
25949;DHT22;13961;51.178;4.448;2022-07-10T12:49:08;24.80;99.90
25949;DHT22;13961;51.178;4.448;2022-07-10T12:51:46;24.70;99.90
25949;DHT22;13961;51.178;4.448;2022-07-10T12:54:34;24.90;99.90
25949;DHT22;13961;51.178;4.448;2022-07-10T12:57:01;25.40;99.90
25949;DHT22;13961;51.178;4.448;2022-07-10T12:59:28;25.40;99.10
25949;DHT22;13961;51.178;4.448;2022-07-10T13:01:56;25.00;99.90
25949;DHT22;13961;51.178;4.448;2022-07-10T13:04:27;24.80;99.90
25949;DHT22;13961;51.178;4.448;2022-07-10T13:06:53;24.90;99.90
25949;DHT22;13961;51.178;4.448;2022-07-10T13:09:24;24.70;99.90
25949;DHT22;13961;51.178;4.448;2022-07-10T13:11:51;24.70;99.90
25949;DHT22;13961;51.178;4.448;2022-07-10T13:14:18;24.50;99.90
25949;DHT22;13961;51.178;4.448;2022-07-10T13:16:43;24.20;99.90
25949;DHT22;13961;51.178;4.448;2022-07-10T13:19:09;24.20;99.90
25949;DHT22;13961;51.178;4.448;2022-07-10T13:21:35;24.00;99.90
25949;DHT22;13961;51.178;4.448;2022-07-10T13:24:02;24.20;99.90
25949;DHT22;13961;51.178;4.448;2022-07-10T13:26:29;24.50;99.90
25949;DHT22;13961;51.178;4.448;2022-07-10T13:28:57;24.40;99.90
25949;DHT22;13961;51.178;4.448;2022-07-10T13:31:24;24.40;99.90
25949;DHT22;13961;51.178;4.448;2022-07-10T13:33:51;24.40;99.90
25949;DHT22;13961;51.178;4.448;2022-07-10T13:36:17;24.40;99.90
25949;DHT22;13961;51.178;4.448;2022-07-10T13:38:42;24.50;99.90
25949;DHT22;13961;51.178;4.448;2022-07-10T13:41:08;24.80;99.90
25949;DHT22;13961;51.178;4.448;2022-07-10T13:43:34;25.00;99.90
25949;DHT22;13961;51.178;4.448;2022-07-10T13:46:01;24.90;99.90
25949;DHT22;13961;51.178;4.448;2022-07-10T13:48:27;24.70;99.90
25949;DHT22;13961;51.178;4.448;2022-07-10T13:50:53;25.00;99.90
25949;DHT22;13961;51.178;4.448;2022-07-10T13:53:19;25.00;99.90
25949;DHT22;13961;51.178;4.448;2022-07-10T13:55:45;25.10;99.90
25949;DHT22;13961;51.178;4.448;2022-07-10T13:58:11;24.90;99.90
25949;DHT22;13961;51.178;4.448;2022-07-10T14:00:38;24.90;99.90
25949;DHT22;13961;51.178;4.448;2022-07-10T14:03:04;24.80;99.90
25949;DHT22;13961;51.178;4.448;2022-07-10T14:05:31;24.80;99.90
25949;DHT22;13961;51.178;4.448;2022-07-10T14:07:58;24.80;99.90
25949;DHT22;13961;51.178;4.448;2022-07-10T14:10:24;24.90;99.90
25949;DHT22;13961;51.178;4.448;2022-07-10T14:12:51;24.90;99.90
25949;DHT22;13961;51.178;4.448;2022-07-10T14:15:18;24.90;99.90
25949;DHT22;13961;51.178;4.448;2022-07-10T14:17:43;24.50;99.90
25949;DHT22;13961;51.178;4.448;2022-07-10T14:20:10;24.60;99.90
25949;DHT22;13961;51.178;4.448;2022-07-10T14:22:36;24.40;99.90
25949;DHT22;13961;51.178;4.448;2022-07-10T14:25:03;24.30;99.90
25949;DHT22;13961;51.178;4.448;2022-07-10T14:27:29;24.10;99.90
25949;DHT22;13961;51.178;4.448;2022-07-10T14:29:57;23.90;99.90
25949;DHT22;13961;51.178;4.448;2022-07-10T14:32:23;23.60;99.90
25949;DHT22;13961;51.178;4.448;2022-07-10T14:34:49;23.60;99.90
25949;DHT22;13961;51.178;4.448;2022-07-10T14:37:15;23.80;99.90
25949;DHT22;13961;51.178;4.448;2022-07-10T14:39:40;23.80;99.90
25949;DHT22;13961;51.178;4.448;2022-07-10T14:42:06;23.80;99.90
25949;DHT22;13961;51.178;4.448;2022-07-10T14:44:35;23.80;99.90
25949;DHT22;13961;51.178;4.448;2022-07-10T14:47:01;23.80;99.90
25949;DHT22;13961;51.178;4.448;2022-07-10T14:49:27;23.70;99.90
25949;DHT22;13961;51.178;4.448;2022-07-10T14:51:53;23.70;99.90
25949;DHT22;13961;51.178;4.448;2022-07-10T14:54:20;23.70;99.90
25949;DHT22;13961;51.178;4.448;2022-07-10T14:56:46;24.00;99.90
25949;DHT22;13961;51.178;4.448;2022-07-10T14:59:11;24.40;99.90
25949;DHT22;13961;51.178;4.448;2022-07-10T15:01:37;24.30;99.90
25949;DHT22;13961;51.178;4.448;2022-07-10T15:04:03;24.30;99.90
25949;DHT22;13961;51.178;4.448;2022-07-10T15:06:28;24.50;99.90
25949;DHT22;13961;51.178;4.448;2022-07-10T15:08:54;24.60;99.90
25949;DHT22;13961;51.178;4.448;2022-07-10T15:11:20;24.80;99.40
25949;DHT22;13961;51.178;4.448;2022-07-10T15:13:48;24.70;99.60
25949;DHT22;13961;51.178;4.448;2022-07-10T15:16:16;25.10;99.60
25949;DHT22;13961;51.178;4.448;2022-07-10T15:18:42;25.20;99.00
25949;DHT22;13961;51.178;4.448;2022-07-10T15:21:07;25.30;98.70
25949;DHT22;13961;51.178;4.448;2022-07-10T15:23:33;25.10;98.90
25949;DHT22;13961;51.178;4.448;2022-07-10T15:25:59;24.90;99.30
25949;DHT22;13961;51.178;4.448;2022-07-10T15:28:25;24.70;99.60
25949;DHT22;13961;51.178;4.448;2022-07-10T15:30:51;24.60;99.70
25949;DHT22;13961;51.178;4.448;2022-07-10T15:33:16;24.70;99.90
25949;DHT22;13961;51.178;4.448;2022-07-10T15:35:42;24.90;99.10
25949;DHT22;13961;51.178;4.448;2022-07-10T15:38:08;25.00;99.50
25949;DHT22;13961;51.178;4.448;2022-07-10T15:40:33;24.90;98.50
25949;DHT22;13961;51.178;4.448;2022-07-10T15:43:00;24.90;99.30
25949;DHT22;13961;51.178;4.448;2022-07-10T15:45:26;25.10;98.40
25949;DHT22;13961;51.178;4.448;2022-07-10T15:47:52;25.20;98.70
25949;DHT22;13961;51.178;4.448;2022-07-10T15:50:18;25.30;98.30
25949;DHT22;13961;51.178;4.448;2022-07-10T15:52:44;25.40;98.80
25949;DHT22;13961;51.178;4.448;2022-07-10T15:55:11;25.40;97.40
25949;DHT22;13961;51.178;4.448;2022-07-10T15:57:37;25.20;97.90
25949;DHT22;13961;51.178;4.448;2022-07-10T16:00:08;25.00;98.00
25949;DHT22;13961;51.178;4.448;2022-07-10T16:02:34;24.90;98.50
25949;DHT22;13961;51.178;4.448;2022-07-10T16:05:00;24.90;98.10
25949;DHT22;13961;51.178;4.448;2022-07-10T16:07:26;24.60;98.40
25949;DHT22;13961;51.178;4.448;2022-07-10T16:09:51;24.70;98.30